Time;durP1;ratioP1;P1;durP2;ratioP2;P2;SDS_P1;SDS_P2;PMS_P1;PMS_P2;Temp;Humidity;BMP_temperature;BMP_pressure;BME280_temperature;BME280_humidity;BME280_pressure;Samples;Min_cycle;Max_cycle;Signal;HPM_P1;HPM_P2
2021/07/26 00:01:29;;;;;;;7.87;4.90;;;15.30;99.90;;;;;;5095170;28;20177;-66
2021/07/26 00:03:55;;;;;;;9.70;4.97;;;15.40;99.90;;;;;;5095161;28;20184;-66
2021/07/26 00:06:20;;;;;;;6.10;4.90;;;15.40;99.90;;;;;;5095113;28;20196;-66
2021/07/26 00:08:46;;;;;;;6.63;4.97;;;15.40;99.90;;;;;;5093915;28;20281;-66
2021/07/26 00:11:12;;;;;;;5.37;4.87;;;15.50;99.90;;;;;;5095129;28;20276;-66
2021/07/26 00:13:38;;;;;;;8.73;4.60;;;15.50;99.90;;;;;;5094894;28;20173;-66
2021/07/26 00:16:06;;;;;;;6.17;4.70;;;15.60;99.90;;;;;;5095190;28;20405;-66
2021/07/26 00:18:32;;;;;;;5.43;4.07;;;15.60;99.90;;;;;;5094815;28;20514;-66
2021/07/26 00:20:59;;;;;;;5.20;4.30;;;15.60;99.90;;;;;;5094746;28;20484;-66
2021/07/26 00:23:25;;;;;;;5.13;4.37;;;15.60;99.90;;;;;;5094783;28;20407;-66
2021/07/26 00:25:51;;;;;;;5.53;4.70;;;15.50;99.90;;;;;;5094790;28;20454;-66
2021/07/26 00:28:17;;;;;;;4.60;4.20;;;15.40;99.90;;;;;;5094575;28;20484;-66
2021/07/26 00:30:43;;;;;;;6.40;4.70;;;15.40;99.90;;;;;;5094462;28;20398;-66
2021/07/26 00:34:06;;;;;;;4.67;4.17;;;15.50;99.90;;;;;;5094690;28;20165;-66
2021/07/26 00:36:32;;;;;;;6.50;5.07;;;15.50;99.90;;;;;;5094755;28;20196;-66
2021/07/26 00:38:57;;;;;;;5.57;4.40;;;15.50;99.90;;;;;;5094177;28;20478;-66
2021/07/26 00:41:23;;;;;;;9.53;4.80;;;15.60;99.90;;;;;;5094670;28;20412;-66
2021/07/26 00:43:49;;;;;;;5.83;4.77;;;15.60;99.90;;;;;;5094502;28;20184;-66
2021/07/26 00:46:15;;;;;;;5.90;5.30;;;15.60;99.90;;;;;;5094124;28;20235;-66
2021/07/26 00:48:41;;;;;;;5.50;5.00;;;15.70;99.90;;;;;;5094206;28;20927;-67
2021/07/26 00:51:07;;;;;;;5.30;4.80;;;15.80;99.90;;;;;;5092763;28;20498;-66
2021/07/26 00:53:34;;;;;;;7.17;5.77;;;15.80;99.90;;;;;;5094199;28;20404;-66
2021/07/26 00:56:00;;;;;;;8.83;4.57;;;15.80;99.90;;;;;;5094192;28;20171;-66
2021/07/26 00:58:25;;;;;;;9.20;5.50;;;15.90;99.90;;;;;;5094087;28;20438;-66
2021/07/26 01:00:51;;;;;;;6.33;5.10;;;15.90;99.90;;;;;;5093979;28;20173;-66
2021/07/26 01:03:17;;;;;;;7.27;4.73;;;16.00;99.90;;;;;;5094371;28;20546;-67
2021/07/26 01:05:42;;;;;;;5.53;4.43;;;16.00;99.90;;;;;;5094068;28;20577;-66
2021/07/26 01:08:08;;;;;;;5.23;4.73;;;16.00;99.90;;;;;;5093873;28;20197;-66
2021/07/26 01:10:33;;;;;;;5.67;5.07;;;16.00;99.90;;;;;;5093864;28;20324;-66
2021/07/26 01:12:59;;;;;;;4.83;4.37;;;16.00;99.90;;;;;;5093970;28;20751;-66
2021/07/26 01:15:25;;;;;;;5.33;4.63;;;16.10;99.90;;;;;;5093948;28;20170;-66
2021/07/26 01:18:20;;;;;;;5.80;4.60;;;16.10;99.90;;;;;;5094022;28;20205;-66
2021/07/26 01:21:05;;;;;;;5.33;4.60;;;16.10;99.90;;;;;;5093375;28;20174;-66
2021/07/26 01:23:33;;;;;;;6.03;3.83;;;16.10;99.90;;;;;;5093838;28;20402;-67
2021/07/26 01:26:00;;;;;;;7.47;4.60;;;16.10;99.90;;;;;;5093676;28;20988;-66
2021/07/26 01:28:33;;;;;;;8.33;4.67;;;16.10;99.90;;;;;;5093690;28;20430;-66
2021/07/26 01:30:59;;;;;;;5.47;3.80;;;16.10;99.90;;;;;;5093736;28;20542;-66
2021/07/26 01:33:25;;;;;;;5.30;4.03;;;16.00;99.90;;;;;;5093795;28;20415;-66
2021/07/26 01:35:52;;;;;;;4.40;4.03;;;15.80;99.90;;;;;;5093753;28;20403;-66
2021/07/26 01:38:17;;;;;;;5.57;4.97;;;15.70;99.90;;;;;;5093338;28;20199;-67
2021/07/26 01:40:49;;;;;;;5.20;4.70;;;15.80;99.90;;;;;;5093321;28;20421;-66
2021/07/26 01:43:15;;;;;;;5.57;4.43;;;15.90;99.90;;;;;;5093397;28;20449;-66
2021/07/26 01:45:47;;;;;;;5.70;5.20;;;15.90;99.90;;;;;;5093214;28;20509;-66
2021/07/26 01:48:25;;;;;;;7.33;4.70;;;16.00;99.90;;;;;;5093543;28;20210;-66
2021/07/26 01:50:57;;;;;;;8.37;4.70;;;16.00;99.90;;;;;;5093449;28;20401;-67
2021/07/26 01:53:23;;;;;;;5.13;4.63;;;16.00;99.90;;;;;;5093463;28;20399;-66
2021/07/26 01:55:49;;;;;;;4.73;4.33;;;16.00;99.90;;;;;;5093419;28;20514;-66
2021/07/26 01:58:15;;;;;;;4.43;3.90;;;16.10;99.90;;;;;;5093582;28;20445;-66
2021/07/26 02:00:41;;;;;;;6.77;4.13;;;16.20;99.90;;;;;;5093349;28;20487;-66
2021/07/26 02:03:07;;;;;;;6.97;4.30;;;16.20;99.90;;;;;;5093353;28;20470;-66
2021/07/26 02:05:32;;;;;;;5.17;4.30;;;16.20;99.90;;;;;;5093387;28;20666;-66
2021/07/26 02:07:58;;;;;;;5.40;4.90;;;16.30;99.90;;;;;;5093174;28;20194;-66
2021/07/26 02:10:23;;;;;;;5.40;4.10;;;16.30;99.90;;;;;;5093270;28;20172;-66
2021/07/26 02:12:49;;;;;;;6.40;4.57;;;16.30;99.90;;;;;;5093434;28;20189;-66
2021/07/26 02:15:15;;;;;;;5.90;5.10;;;16.20;99.90;;;;;;5093411;28;20182;-66
2021/07/26 02:17:40;;;;;;;7.57;4.77;;;16.30;99.90;;;;;;5093283;28;20276;-66
2021/07/26 02:20:06;;;;;;;8.20;5.47;;;16.30;99.90;;;;;;5093181;28;20285;-66
2021/07/26 02:22:32;;;;;;;8.90;5.00;;;16.40;99.90;;;;;;5093077;28;20173;-66
2021/07/26 02:24:58;;;;;;;11.00;5.50;;;16.40;99.90;;;;;;5092983;28;20777;-66
2021/07/26 02:27:24;;;;;;;6.13;4.70;;;16.40;99.90;;;;;;5092989;28;20241;-66
2021/07/26 02:29:50;;;;;;;7.47;4.60;;;16.50;99.90;;;;;;5092872;28;20401;-66
2021/07/26 02:32:16;;;;;;;6.87;4.87;;;16.50;99.90;;;;;;5094287;28;20482;-66
2021/07/26 02:34:41;;;;;;;7.70;5.00;;;16.50;99.90;;;;;;5097017;28;20180;-66
2021/07/26 02:37:07;;;;;;;6.03;5.27;;;16.50;99.90;;;;;;5096963;28;20177;-66
2021/07/26 02:39:33;;;;;;;7.30;4.47;;;16.50;99.90;;;;;;5096631;28;20201;-66
2021/07/26 02:41:58;;;;;;;6.70;4.80;;;16.60;99.90;;;;;;5096811;28;20175;-66
2021/07/26 02:44:24;;;;;;;8.03;5.00;;;16.50;99.90;;;;;;5096770;28;20176;-67
2021/07/26 02:46:50;;;;;;;5.97;4.20;;;16.50;99.90;;;;;;5097009;28;20203;-66
2021/07/26 02:49:15;;;;;;;7.40;5.30;;;16.40;99.90;;;;;;5096419;28;20658;-66
2021/07/26 02:51:41;;;;;;;7.60;5.03;;;16.50;99.90;;;;;;5096553;28;20172;-66
2021/07/26 02:54:06;;;;;;;5.77;5.17;;;16.50;99.90;;;;;;5096541;28;20176;-66
2021/07/26 02:56:32;;;;;;;4.90;3.87;;;16.40;99.90;;;;;;5096246;28;20173;-66
2021/07/26 02:58:58;;;;;;;6.90;5.20;;;16.30;99.90;;;;;;5096169;28;20619;-66
2021/07/26 03:01:23;;;;;;;5.33;4.27;;;16.30;99.90;;;;;;5096573;28;20661;-66
2021/07/26 03:03:49;;;;;;;4.73;4.33;;;16.40;99.90;;;;;;5096219;28;20169;-66
2021/07/26 03:06:18;;;;;;;5.73;4.33;;;16.30;99.90;;;;;;5096129;28;20670;-66
2021/07/26 03:08:44;;;;;;;8.80;4.70;;;16.30;99.90;;;;;;5096065;28;20203;-66
2021/07/26 03:11:10;;;;;;;5.80;4.70;;;16.30;99.90;;;;;;5096157;28;20477;-66
2021/07/26 03:13:40;;;;;;;5.67;5.10;;;16.30;99.90;;;;;;5096170;28;20406;-66
2021/07/26 03:16:11;;;;;;;6.67;4.67;;;16.40;99.90;;;;;;5096345;28;20869;-66
2021/07/26 03:18:38;;;;;;;5.13;4.63;;;16.30;99.90;;;;;;5095946;28;20435;-66
2021/07/26 03:21:04;;;;;;;5.00;4.50;;;16.40;99.90;;;;;;5095832;28;20406;-67
2021/07/26 03:23:30;;;;;;;6.87;4.30;;;16.40;99.90;;;;;;5096132;28;20874;-66
2021/07/26 03:25:55;;;;;;;6.73;5.60;;;16.40;99.90;;;;;;5096019;28;20449;-66
2021/07/26 03:28:21;;;;;;;7.47;4.60;;;16.50;99.90;;;;;;5095893;28;20427;-66
2021/07/26 03:30:47;;;;;;;5.63;5.10;;;16.60;99.90;;;;;;5095829;28;20169;-66
2021/07/26 03:33:13;;;;;;;8.50;4.63;;;16.60;99.90;;;;;;5095898;28;20179;-66
2021/07/26 03:35:39;;;;;;;5.67;4.47;;;16.60;99.90;;;;;;5095694;28;20407;-67
2021/07/26 03:38:08;;;;;;;10.83;4.80;;;16.70;99.90;;;;;;5095607;28;20608;-66
2021/07/26 03:40:34;;;;;;;5.23;4.73;;;16.80;99.90;;;;;;5095564;28;20261;-66
2021/07/26 03:43:01;;;;;;;5.50;4.70;;;16.80;99.90;;;;;;5095564;28;20425;-66
2021/07/26 03:45:28;;;;;;;5.97;4.93;;;16.80;99.90;;;;;;5095409;28;20807;-66
2021/07/26 03:47:59;;;;;;;6.33;4.80;;;16.80;99.90;;;;;;5095651;28;20434;-66
2021/07/26 03:50:26;;;;;;;6.43;5.37;;;16.90;99.90;;;;;;5095393;28;20414;-66
2021/07/26 03:52:56;;;;;;;5.03;4.57;;;16.90;99.90;;;;;;5095340;28;20407;-66
2021/07/26 03:55:24;;;;;;;5.27;3.90;;;16.80;99.90;;;;;;5095381;28;20418;-66
2021/07/26 03:57:51;;;;;;;6.33;4.40;;;16.60;99.90;;;;;;5095143;28;20445;-66
2021/07/26 04:00:19;;;;;;;6.90;5.73;;;16.60;99.90;;;;;;5095064;28;20921;-66
2021/07/26 04:08:23;;;;;;;4.33;3.93;;;16.60;99.90;;;;;;5095142;28;20428;-66
2021/07/26 04:11:02;;;;;;;5.13;4.37;;;16.60;99.90;;;;;;5094845;28;20773;-66
2021/07/26 04:13:28;;;;;;;5.43;4.93;;;16.60;99.90;;;;;;5095205;28;20431;-66
2021/07/26 04:15:54;;;;;;;5.33;4.83;;;16.60;99.90;;;;;;5093736;28;20438;-66
2021/07/26 04:18:20;;;;;;;5.17;4.67;;;16.60;99.90;;;;;;5094808;28;20461;-67
2021/07/26 04:20:45;;;;;;;6.53;5.17;;;16.60;99.90;;;;;;5094867;28;20417;-66
2021/07/26 04:23:11;;;;;;;5.73;5.13;;;16.50;99.90;;;;;;5094693;28;20169;-66
2021/07/26 04:25:37;;;;;;;5.57;5.07;;;16.50;99.90;;;;;;5094701;28;20561;-66
2021/07/26 04:28:03;;;;;;;4.90;4.40;;;16.50;99.90;;;;;;5094984;28;20193;-66
2021/07/26 04:30:28;;;;;;;7.60;6.10;;;16.60;99.90;;;;;;5094570;28;20416;-66
2021/07/26 04:32:54;;;;;;;6.30;5.67;;;16.60;99.90;;;;;;5094792;28;20225;-66
2021/07/26 04:35:20;;;;;;;5.60;5.00;;;16.60;99.90;;;;;;5094780;28;20172;-66
2021/07/26 04:37:45;;;;;;;5.83;5.00;;;16.50;99.90;;;;;;5094540;28;20188;-66
2021/07/26 04:40:12;;;;;;;7.40;5.90;;;16.50;99.90;;;;;;5094397;28;20248;-66
2021/07/26 04:42:40;;;;;;;8.43;5.70;;;16.50;99.90;;;;;;5094316;28;20548;-67
2021/07/26 04:45:08;;;;;;;5.97;5.13;;;16.50;99.90;;;;;;5094165;28;20461;-66
2021/07/26 04:47:33;;;;;;;7.10;5.93;;;16.50;99.90;;;;;;5094341;28;20437;-67
2021/07/26 04:49:59;;;;;;;4.90;4.50;;;16.50;99.90;;;;;;5094126;28;20488;-66
2021/07/26 04:52:25;;;;;;;8.00;5.80;;;16.50;99.90;;;;;;5094446;28;20459;-66
2021/07/26 04:54:51;;;;;;;6.00;5.33;;;16.60;99.90;;;;;;5093856;28;20544;-66
2021/07/26 04:57:16;;;;;;;8.33;5.77;;;16.70;99.90;;;;;;5094119;28;20261;-66
2021/07/26 04:59:42;;;;;;;8.30;5.60;;;16.70;99.90;;;;;;5093880;28;20229;-66
2021/07/26 05:02:08;;;;;;;10.07;5.30;;;16.80;99.90;;;;;;5094200;28;20198;-66
2021/07/26 05:04:33;;;;;;;8.40;5.73;;;17.00;99.90;;;;;;5094087;28;20245;-66
2021/07/26 05:07:01;;;;;;;6.60;5.20;;;17.10;99.90;;;;;;5093758;28;20203;-67
2021/07/26 05:09:27;;;;;;;8.07;5.80;;;17.20;99.90;;;;;;5093994;28;20169;-66
2021/07/26 05:11:52;;;;;;;5.97;5.37;;;17.40;99.90;;;;;;5093942;28;20889;-66
2021/07/26 05:14:18;;;;;;;8.20;5.23;;;17.50;99.90;;;;;;5093887;28;20414;-66
2021/07/26 05:16:45;;;;;;;6.13;5.33;;;17.60;99.90;;;;;;5093893;28;20199;-67
2021/07/26 05:19:10;;;;;;;10.10;5.60;;;17.80;99.90;;;;;;5093491;28;20225;-66
2021/07/26 05:21:36;;;;;;;5.90;5.30;;;18.00;99.90;;;;;;5093892;28;20464;-66
2021/07/26 05:24:02;;;;;;;6.07;5.33;;;18.10;99.90;;;;;;5093728;28;20607;-66
2021/07/26 05:26:28;;;;;;;6.90;5.73;;;18.40;99.90;;;;;;5093641;28;20215;-66
2021/07/26 05:28:54;;;;;;;7.07;5.20;;;18.60;99.90;;;;;;5093355;28;20186;-66
2021/07/26 05:31:20;;;;;;;4.53;4.03;;;18.80;99.90;;;;;;5093849;28;20569;-67
2021/07/26 05:33:45;;;;;;;4.80;4.00;;;19.10;99.90;;;;;;5093562;28;20494;-67
2021/07/26 05:36:11;;;;;;;5.70;5.10;;;19.30;99.90;;;;;;5093772;28;20575;-66
2021/07/26 05:38:37;;;;;;;4.73;4.33;;;19.50;99.90;;;;;;5093530;28;20194;-66
2021/07/26 05:41:03;;;;;;;6.07;4.37;;;19.80;99.90;;;;;;5093390;28;20648;-67
2021/07/26 05:43:29;;;;;;;6.23;4.80;;;19.90;99.90;;;;;;5093971;28;20252;-67
2021/07/26 05:45:55;;;;;;;3.43;3.13;;;20.00;99.90;;;;;;5093239;28;20602;-67
2021/07/26 05:48:20;;;;;;;5.00;3.77;;;19.80;99.90;;;;;;5093507;28;20198;-67
2021/07/26 05:50:46;;;;;;;5.10;3.97;;;19.80;99.90;;;;;;5093173;28;20257;-66
2021/07/26 05:53:12;;;;;;;3.87;3.50;;;19.80;99.90;;;;;;5093411;28;20173;-66
2021/07/26 05:55:38;;;;;;;4.60;3.73;;;19.90;99.90;;;;;;5093564;28;20214;-67
2021/07/26 05:58:04;;;;;;;4.50;4.10;;;20.00;99.90;;;;;;5093276;28;20251;-66
2021/07/26 06:00:41;;;;;;;4.87;4.43;;;20.10;99.90;;;;;;5093400;28;20498;-67
2021/07/26 06:03:07;;;;;;;4.40;4.10;;;20.30;99.90;;;;;;5093448;28;20429;-67
2021/07/26 06:05:34;;;;;;;7.00;5.03;;;20.30;99.90;;;;;;5093387;28;20453;-66
2021/07/26 06:08:00;;;;;;;6.70;4.70;;;20.20;99.90;;;;;;5095951;28;20831;-67
2021/07/26 06:10:25;;;;;;;4.83;4.30;;;20.40;99.90;;;;;;5097610;28;20402;-67
2021/07/26 06:12:55;;;;;;;5.20;4.70;;;20.60;99.90;;;;;;5097547;28;20175;-67
2021/07/26 06:15:21;;;;;;;4.63;3.70;;;21.10;99.90;;;;;;5097464;28;20173;-67
2021/07/26 06:17:47;;;;;;;5.17;3.27;;;21.60;99.00;;;;;;5097342;28;20948;-67
2021/07/26 06:20:13;;;;;;;3.90;3.60;;;22.40;98.30;;;;;;5097023;28;20443;-67
2021/07/26 06:22:38;;;;;;;3.23;2.97;;;23.00;96.70;;;;;;5097386;28;20208;-67
2021/07/26 06:25:09;;;;;;;3.80;3.07;;;23.50;95.40;;;;;;5097154;28;20389;-67
2021/07/26 06:27:35;;;;;;;3.77;3.23;;;24.20;95.10;;;;;;5097080;28;20280;-67
2021/07/26 06:30:02;;;;;;;3.60;3.30;;;25.40;93.40;;;;;;5096840;28;20388;-67
2021/07/26 06:32:31;;;;;;;4.03;3.73;;;25.80;92.00;;;;;;5096751;28;20795;-67
2021/07/26 06:34:57;;;;;;;4.30;3.87;;;25.30;91.00;;;;;;5096849;28;20448;-67
2021/07/26 06:37:23;;;;;;;4.37;3.67;;;24.70;91.80;;;;;;5097067;28;20914;-67
2021/07/26 06:39:48;;;;;;;3.90;3.57;;;24.10;93.30;;;;;;5096606;28;20168;-67
2021/07/26 06:42:14;;;;;;;4.40;3.57;;;23.50;93.90;;;;;;5096812;28;20230;-67
2021/07/26 06:44:40;;;;;;;5.07;4.10;;;23.10;94.90;;;;;;5096726;28;20216;-67
2021/07/26 06:47:06;;;;;;;5.77;3.90;;;22.80;96.10;;;;;;5096410;28;20201;-66
2021/07/26 06:49:32;;;;;;;4.23;3.40;;;22.50;96.10;;;;;;5096405;28;20405;-67
2021/07/26 06:51:58;;;;;;;4.10;3.53;;;22.50;97.10;;;;;;5096638;28;20282;-67
2021/07/26 06:54:24;;;;;;;4.27;3.87;;;22.60;96.50;;;;;;5096704;28;20526;-67
2021/07/26 06:56:51;;;;;;;4.20;3.77;;;22.90;96.90;;;;;;5096607;28;20170;-67
2021/07/26 06:59:17;;;;;;;3.47;3.17;;;23.10;96.50;;;;;;5096410;28;20417;-67
2021/07/26 07:01:42;;;;;;;3.20;3.00;;;23.20;95.70;;;;;;5096551;28;20406;-66
2021/07/26 07:04:08;;;;;;;3.97;3.50;;;23.00;95.30;;;;;;5096506;28;20704;-67
2021/07/26 07:06:34;;;;;;;3.70;3.33;;;22.90;96.20;;;;;;5096416;28;20285;-67
2021/07/26 07:08:59;;;;;;;4.10;3.73;;;22.90;96.10;;;;;;5095996;28;20189;-67
2021/07/26 07:11:25;;;;;;;4.57;3.90;;;23.20;96.70;;;;;;5096358;28;20647;-67
2021/07/26 07:13:52;;;;;;;3.80;3.40;;;24.20;96.30;;;;;;5096309;28;20255;-67
2021/07/26 07:16:21;;;;;;;3.40;2.80;;;25.30;94.80;;;;;;5096160;28;20188;-67
2021/07/26 07:18:52;;;;;;;4.03;3.70;;;25.90;92.30;;;;;;5095445;28;20464;-67
2021/07/26 07:21:26;;;;;;;3.30;3.00;;;26.20;90.50;;;;;;5096229;28;20403;-67
2021/07/26 07:23:53;;;;;;;4.53;3.10;;;25.80;90.60;;;;;;5096193;28;20404;-67
2021/07/26 07:26:21;;;;;;;5.17;4.17;;;25.80;91.00;;;;;;5096053;28;20446;-67
2021/07/26 07:28:47;;;;;;;4.67;3.47;;;26.70;91.50;;;;;;5095656;28;20510;-67
2021/07/26 07:31:15;;;;;;;3.17;2.63;;;28.00;88.10;;;;;;5096070;28;20490;-67
2021/07/26 07:33:41;;;;;;;3.50;3.10;;;28.50;82.50;;;;;;5095892;28;20176;-67
2021/07/26 07:36:07;;;;;;;3.63;3.33;;;28.40;80.60;;;;;;5095931;28;20408;-67
2021/07/26 07:38:33;;;;;;;2.90;2.70;;;27.90;83.30;;;;;;5095887;28;20794;-67
2021/07/26 07:41:00;;;;;;;3.90;3.30;;;27.50;84.00;;;;;;5095676;28;20451;-67
2021/07/26 07:43:27;;;;;;;4.87;2.63;;;27.70;81.20;;;;;;5095634;28;20414;-67
2021/07/26 07:45:54;;;;;;;4.90;2.40;;;27.70;84.20;;;;;;5095444;28;20963;-67
2021/07/26 07:48:20;;;;;;;2.80;2.50;;;27.30;85.00;;;;;;5095496;28;20814;-67
2021/07/26 07:50:46;;;;;;;2.90;2.57;;;26.90;85.10;;;;;;5095154;28;20399;-67
2021/07/26 07:53:12;;;;;;;5.30;2.57;;;26.90;81.30;;;;;;5094930;28;20972;-68
2021/07/26 07:55:38;;;;;;;3.73;3.43;;;27.10;87.90;;;;;;5094166;28;20177;-67
2021/07/26 07:58:05;;;;;;;3.53;3.30;;;27.00;84.00;;;;;;5093791;28;20794;-66
2021/07/26 08:00:30;;;;;;;3.00;2.70;;;26.60;86.10;;;;;;5094512;28;20180;-67
2021/07/26 08:02:56;;;;;;;3.20;2.97;;;26.50;84.80;;;;;;5094647;28;20433;-67
2021/07/26 08:05:22;;;;;;;3.10;2.70;;;26.30;84.60;;;;;;5095215;28;20203;-67
2021/07/26 08:07:47;;;;;;;3.10;2.80;;;26.40;87.30;;;;;;5095696;28;20242;-67
2021/07/26 08:10:14;;;;;;;3.70;3.23;;;26.80;84.90;;;;;;5095206;28;20226;-67
2021/07/26 08:12:42;;;;;;;2.77;2.50;;;27.40;83.60;;;;;;5094348;28;20164;-67
2021/07/26 08:15:08;;;;;;;2.97;2.77;;;27.90;83.40;;;;;;5094435;28;20415;-67
2021/07/26 08:17:38;;;;;;;4.93;2.50;;;28.10;82.00;;;;;;5093260;28;20431;-67
2021/07/26 08:20:04;;;;;;;3.17;2.50;;;28.50;81.50;;;;;;5094811;28;20403;-67
2021/07/26 08:22:30;;;;;;;3.30;3.00;;;28.80;78.70;;;;;;5094612;28;20411;-67
2021/07/26 08:24:56;;;;;;;2.43;2.17;;;27.80;79.40;;;;;;5094866;28;20499;-68
2021/07/26 08:27:21;;;;;;;2.40;2.00;;;27.40;82.40;;;;;;5094262;28;20253;-67
2021/07/26 08:29:47;;;;;;;3.17;2.87;;;27.50;80.00;;;;;;5093941;28;20243;-68
2021/07/26 08:32:12;;;;;;;3.80;2.77;;;27.60;77.60;;;;;;5095040;28;20247;-68
2021/07/26 08:34:38;;;;;;;2.70;2.50;;;27.90;79.40;;;;;;5094528;28;20530;-67
2021/07/26 08:37:04;;;;;;;2.30;2.10;;;28.90;77.10;;;;;;5095106;28;20173;-66
2021/07/26 08:39:30;;;;;;;3.13;2.60;;;29.50;73.00;;;;;;5093687;28;20169;-67
2021/07/26 08:41:56;;;;;;;2.83;2.63;;;29.90;69.60;;;;;;5094694;28;20197;-67
2021/07/26 08:44:21;;;;;;;7.07;3.40;;;30.10;72.70;;;;;;5094894;28;20552;-68
2021/07/26 08:46:52;;;;;;;2.60;2.40;;;30.40;72.30;;;;;;5094675;28;20422;-68
2021/07/26 08:49:19;;;;;;;2.30;2.10;;;31.20;65.90;;;;;;5094594;28;20173;-69
2021/07/26 08:51:46;;;;;;;2.23;2.03;;;32.20;63.10;;;;;;5094934;28;20395;-66
2021/07/26 08:54:14;;;;;;;2.03;1.93;;;33.50;58.10;;;;;;5094315;28;20804;-69
2021/07/26 08:56:40;;;;;;;3.27;2.63;;;33.80;58.60;;;;;;5094423;28;20402;-69
2021/07/26 08:59:06;;;;;;;2.47;2.27;;;33.20;57.30;;;;;;5094185;28;20920;-68
2021/07/26 09:01:34;;;;;;;2.17;1.97;;;32.70;60.40;;;;;;5094616;28;20409;-68
2021/07/26 09:04:00;;;;;;;3.17;2.60;;;33.00;57.50;;;;;;5094135;28;20184;-67
2021/07/26 15:07:06;;;;;;;5.20;3.57;;;21.50;99.90;;;;;;5053986;28;20471;-68
2021/07/26 15:09:32;;;;;;;4.40;3.97;;;21.20;99.90;;;;;;5055580;28;20475;-68
2021/07/26 15:11:57;;;;;;;4.70;4.20;;;21.00;99.90;;;;;;5056174;28;20788;-68
2021/07/26 15:14:23;;;;;;;3.70;3.40;;;20.80;99.90;;;;;;5055584;28;20175;-68
2021/07/26 15:16:49;;;;;;;5.80;4.07;;;20.70;99.90;;;;;;5056037;28;20186;-68
2021/07/26 15:19:15;;;;;;;4.60;4.20;;;20.50;99.90;;;;;;5055863;28;20190;-67
2021/07/26 15:21:41;;;;;;;3.70;3.40;;;20.50;99.90;;;;;;5056387;28;20220;-67
2021/07/26 15:24:06;;;;;;;6.20;3.90;;;20.50;99.90;;;;;;5055945;28;20408;-68
2021/07/26 15:26:32;;;;;;;8.50;4.77;;;20.50;99.90;;;;;;5055585;28;20545;-68
2021/07/26 15:28:58;;;;;;;7.20;4.90;;;20.30;99.90;;;;;;5055246;28;20674;-69
2021/07/26 15:31:23;;;;;;;6.27;4.60;;;20.00;99.90;;;;;;5056079;28;20186;-68
2021/07/26 15:33:52;;;;;;;9.57;6.00;;;19.90;99.90;;;;;;5055597;28;20540;-67
2021/07/26 15:36:19;;;;;;;9.47;4.80;;;19.80;99.90;;;;;;5055540;28;20182;-68
2021/07/26 15:38:46;;;;;;;7.67;6.50;;;19.50;99.90;;;;;;5055811;28;20438;-68
2021/07/26 15:41:11;;;;;;;8.87;6.50;;;19.40;99.90;;;;;;5055196;28;20498;-68
2021/07/26 15:43:41;;;;;;;6.80;6.00;;;19.40;99.90;;;;;;5054031;28;20511;-69
2021/07/26 15:46:07;;;;;;;8.33;6.33;;;19.40;99.90;;;;;;5055716;28;20200;-68
2021/07/26 15:48:33;;;;;;;6.43;5.83;;;19.40;99.90;;;;;;5055422;28;20906;-67
2021/07/26 15:50:59;;;;;;;5.80;4.93;;;19.30;99.90;;;;;;5055963;28;20505;-69
2021/07/26 15:53:24;;;;;;;8.00;5.20;;;19.20;99.90;;;;;;5055018;28;20248;-69
2021/07/26 15:55:50;;;;;;;6.20;5.40;;;19.00;99.90;;;;;;5055356;28;20506;-69
2021/07/26 15:58:17;;;;;;;5.27;4.77;;;18.90;99.90;;;;;;5055338;28;20172;-69
2021/07/26 16:00:44;;;;;;;7.00;6.30;;;18.90;99.90;;;;;;5055062;28;20172;-68
2021/07/26 16:03:10;;;;;;;8.00;5.73;;;18.90;99.90;;;;;;5054130;28;20416;-70
2021/07/26 16:05:35;;;;;;;15.43;7.27;;;18.70;99.90;;;;;;5055467;28;20463;-68
2021/07/26 16:08:04;;;;;;;7.83;6.80;;;18.70;99.90;;;;;;5053466;28;20219;-70
2021/07/26 16:10:29;;;;;;;11.90;7.30;;;18.60;99.90;;;;;;5053625;28;20294;-67
2021/07/26 16:12:55;;;;;;;9.67;7.00;;;18.50;99.90;;;;;;5055273;28;20432;-69
2021/07/26 16:15:21;;;;;;;15.47;10.40;;;18.70;99.90;;;;;;5053781;28;20270;-69
2021/07/26 16:17:46;;;;;;;9.97;8.33;;;18.90;99.90;;;;;;5054707;28;20177;-69
2021/07/26 16:20:12;;;;;;;17.70;9.80;;;19.00;99.90;;;;;;5054593;28;20562;-69
2021/07/26 16:22:39;;;;;;;11.87;10.60;;;19.10;99.90;;;;;;5054650;28;20181;-69
2021/07/26 16:25:05;;;;;;;9.60;8.40;;;19.10;99.90;;;;;;5054620;28;20174;-69
2021/07/26 16:27:31;;;;;;;13.83;8.63;;;19.30;99.90;;;;;;5054868;28;20480;-70
2021/07/26 16:29:57;;;;;;;11.30;9.13;;;19.30;99.90;;;;;;5055038;28;20481;-68
2021/07/26 16:32:23;;;;;;;10.37;9.27;;;19.40;99.90;;;;;;5054892;28;20211;-69
2021/07/26 16:34:49;;;;;;;10.40;8.30;;;19.50;99.90;;;;;;5054321;28;20176;-67
2021/07/26 16:37:14;;;;;;;12.83;9.17;;;19.60;99.90;;;;;;5054527;28;20422;-68
2021/07/26 16:39:40;;;;;;;10.77;9.60;;;19.60;99.90;;;;;;5054182;28;20199;-69
2021/07/26 16:42:06;;;;;;;10.10;8.50;;;19.60;99.90;;;;;;5054360;28;20224;-69
2021/07/26 16:44:32;;;;;;;7.53;6.83;;;19.60;99.90;;;;;;5054106;28;20178;-69
2021/07/26 16:47:01;;;;;;;8.70;7.50;;;19.70;99.90;;;;;;5054608;28;20812;-68
2021/07/26 16:49:27;;;;;;;10.80;8.70;;;19.70;99.90;;;;;;5054182;28;20556;-69
2021/07/26 16:51:54;;;;;;;9.70;8.27;;;19.80;99.90;;;;;;5053644;28;20959;-69
2021/07/26 16:54:20;;;;;;;9.30;8.23;;;19.90;99.90;;;;;;5053949;28;20172;-67
2021/07/26 16:56:45;;;;;;;7.00;6.30;;;20.00;99.90;;;;;;5054121;28;20550;-69
2021/07/26 16:59:11;;;;;;;7.73;6.90;;;19.90;99.90;;;;;;5054113;28;20591;-68
2021/07/26 17:01:36;;;;;;;8.27;7.40;;;19.40;99.90;;;;;;5053855;28;20174;-68
2021/07/26 17:04:05;;;;;;;10.73;9.63;;;19.20;99.90;;;;;;5053947;28;20260;-67
2021/07/26 17:06:32;;;;;;;13.40;10.20;;;19.20;99.90;;;;;;5054177;28;20211;-68
2021/07/26 17:09:00;;;;;;;9.30;8.33;;;19.30;99.90;;;;;;5053761;28;20451;-69
2021/07/26 17:11:27;;;;;;;11.70;9.17;;;19.50;99.90;;;;;;5054150;28;20404;-68
2021/07/26 17:13:53;;;;;;;10.50;9.00;;;19.80;99.90;;;;;;5053806;28;20778;-67
2021/07/26 17:16:18;;;;;;;10.97;9.33;;;20.00;99.90;;;;;;5054382;28;20548;-68
2021/07/26 17:18:44;;;;;;;14.50;8.90;;;20.10;99.90;;;;;;5053924;28;20227;-67
2021/07/26 17:21:11;;;;;;;9.60;8.13;;;20.20;99.90;;;;;;5054038;28;20178;-68
2021/07/26 17:23:37;;;;;;;9.90;8.53;;;20.20;99.90;;;;;;5053707;28;20201;-69
2021/07/26 17:26:03;;;;;;;11.70;8.83;;;20.20;99.90;;;;;;5053856;28;20488;-68
2021/07/26 17:28:32;;;;;;;9.60;8.17;;;20.10;99.90;;;;;;5053848;28;20178;-68
2021/07/26 17:31:00;;;;;;;9.73;8.80;;;19.90;99.90;;;;;;5054188;28;20762;-68
2021/07/26 17:33:25;;;;;;;11.27;9.33;;;20.00;99.90;;;;;;5053420;28;20509;-69
2021/07/26 17:35:51;;;;;;;9.40;8.60;;;20.00;99.90;;;;;;5053036;28;20779;-68
2021/07/26 17:38:17;;;;;;;10.37;8.40;;;20.00;99.90;;;;;;5052446;28;20254;-69
2021/07/26 17:40:43;;;;;;;11.80;9.20;;;20.10;99.90;;;;;;5053742;28;20177;-69
2021/07/26 17:43:09;;;;;;;8.73;7.73;;;20.20;99.90;;;;;;5053758;28;20406;-69
2021/07/26 17:45:35;;;;;;;9.60;8.60;;;20.20;99.90;;;;;;5053683;28;20890;-67
2021/07/26 17:48:01;;;;;;;11.93;10.80;;;20.30;99.90;;;;;;5052253;28;20174;-68
2021/07/26 17:50:29;;;;;;;14.00;10.77;;;20.20;99.90;;;;;;5052094;28;20196;-67
2021/07/26 17:52:55;;;;;;;13.37;11.20;;;20.20;99.90;;;;;;5053530;28;20408;-67
2021/07/26 17:55:21;;;;;;;10.70;8.97;;;20.20;99.90;;;;;;5053433;28;20406;-68
2021/07/26 17:57:47;;;;;;;11.93;10.73;;;20.10;99.90;;;;;;5053707;28;20431;-66
2021/07/26 18:00:13;;;;;;;12.20;9.50;;;20.00;99.90;;;;;;5053309;28;20192;-68
2021/07/26 18:02:38;;;;;;;12.17;10.40;;;20.00;99.90;;;;;;5055455;28;20511;-67
2021/07/26 18:05:07;;;;;;;11.17;9.23;;;19.90;99.90;;;;;;5057156;28;20808;-68
2021/07/26 18:07:43;;;;;;;11.63;10.17;;;19.70;99.90;;;;;;5057493;28;20199;-67
2021/07/26 18:10:09;;;;;;;13.77;11.80;;;19.60;99.90;;;;;;5057562;28;20447;-68
2021/07/26 18:12:36;;;;;;;12.80;11.30;;;19.60;99.90;;;;;;5057876;28;20465;-66
2021/07/26 18:15:03;;;;;;;12.17;10.40;;;19.50;99.90;;;;;;5057058;28;20403;-67
2021/07/26 18:17:29;;;;;;;16.87;13.43;;;19.30;99.90;;;;;;5057213;28;20411;-67
2021/07/26 18:19:54;;;;;;;10.93;8.97;;;19.20;99.90;;;;;;5056823;28;20430;-68
2021/07/26 18:22:20;;;;;;;12.53;8.73;;;19.10;99.90;;;;;;5057226;28;20610;-68
2021/07/26 18:24:46;;;;;;;13.70;9.60;;;18.90;99.90;;;;;;5057252;28;20254;-67
2021/07/26 18:27:11;;;;;;;10.33;9.13;;;18.80;99.90;;;;;;5056453;28;20250;-67
2021/07/26 18:29:38;;;;;;;10.43;9.40;;;18.70;99.90;;;;;;5056947;28;20725;-68
2021/07/26 18:32:04;;;;;;;12.20;8.47;;;18.60;99.90;;;;;;5056883;28;20165;-68
2021/07/26 18:34:30;;;;;;;9.20;8.13;;;18.60;99.90;;;;;;5056734;28;20406;-67
2021/07/26 18:36:55;;;;;;;11.50;9.40;;;18.60;99.90;;;;;;5057045;28;20399;-66
2021/07/26 18:39:21;;;;;;;8.80;7.53;;;18.50;99.90;;;;;;5057046;28;20425;-67
2021/07/26 18:41:47;;;;;;;9.47;8.47;;;18.50;99.90;;;;;;5056554;28;20564;-68
2021/07/26 18:44:14;;;;;;;9.47;8.27;;;18.40;99.90;;;;;;5056984;28;20170;-67
2021/07/26 18:46:40;;;;;;;9.73;7.00;;;18.40;99.90;;;;;;5056484;28;20588;-67
2021/07/26 18:49:06;;;;;;;8.40;7.50;;;18.20;99.90;;;;;;5056050;28;20428;-68